sensor_id;sensor_type;location;lat;lon;timestamp;temperature;humidity
32147;DHT22;32190;49.112;8.598;2022-12-18T00:00:09;-1.40;59.10
32147;DHT22;32190;49.112;8.598;2022-12-18T00:05:59;-1.40;59.00
32147;DHT22;32190;49.112;8.598;2022-12-18T00:11:50;-1.40;59.00
32147;DHT22;32190;49.112;8.598;2022-12-18T00:17:41;-1.50;58.90
32147;DHT22;32190;49.112;8.598;2022-12-18T00:23:32;-1.40;59.00
32147;DHT22;32190;49.112;8.598;2022-12-18T00:29:23;-1.40;58.80
32147;DHT22;32190;49.112;8.598;2022-12-18T00:35:13;-1.50;58.80
32147;DHT22;32190;49.112;8.598;2022-12-18T00:41:05;-1.50;58.70
32147;DHT22;32190;49.112;8.598;2022-12-18T00:46:56;-1.50;58.70
32147;DHT22;32190;49.112;8.598;2022-12-18T00:52:47;-1.50;58.80
32147;DHT22;32190;49.112;8.598;2022-12-18T00:58:37;-1.60;58.70
32147;DHT22;32190;49.112;8.598;2022-12-18T01:04:31;-1.60;58.50
32147;DHT22;32190;49.112;8.598;2022-12-18T01:10:24;-1.60;58.60
32147;DHT22;32190;49.112;8.598;2022-12-18T01:16:16;-1.60;58.70
32147;DHT22;32190;49.112;8.598;2022-12-18T01:22:07;-1.70;58.70
32147;DHT22;32190;49.112;8.598;2022-12-18T01:27:57;-1.60;58.80
32147;DHT22;32190;49.112;8.598;2022-12-18T01:33:48;-1.70;58.70
32147;DHT22;32190;49.112;8.598;2022-12-18T01:39:39;-1.60;58.90
32147;DHT22;32190;49.112;8.598;2022-12-18T01:45:31;-1.70;58.80
32147;DHT22;32190;49.112;8.598;2022-12-18T01:51:22;-1.70;58.60
32147;DHT22;32190;49.112;8.598;2022-12-18T01:57:13;-1.70;58.80
32147;DHT22;32190;49.112;8.598;2022-12-18T02:03:04;-1.70;58.90
32147;DHT22;32190;49.112;8.598;2022-12-18T02:09:11;-1.70;58.90
32147;DHT22;32190;49.112;8.598;2022-12-18T02:15:24;-1.70;58.20
32147;DHT22;32190;49.112;8.598;2022-12-18T02:27:34;-1.90;58.40
32147;DHT22;32190;49.112;8.598;2022-12-18T02:33:27;-1.90;58.60
32147;DHT22;32190;49.112;8.598;2022-12-18T02:39:20;-1.90;59.20
32147;DHT22;32190;49.112;8.598;2022-12-18T02:45:12;-1.90;58.40
32147;DHT22;32190;49.112;8.598;2022-12-18T02:51:19;-2.00;58.40
32147;DHT22;32190;49.112;8.598;2022-12-18T02:57:39;-2.00;58.10
32147;DHT22;32190;49.112;8.598;2022-12-18T03:03:46;-2.10;58.10
32147;DHT22;32190;49.112;8.598;2022-12-18T03:09:42;-2.10;58.30
32147;DHT22;32190;49.112;8.598;2022-12-18T03:15:37;-2.10;58.50
32147;DHT22;32190;49.112;8.598;2022-12-18T03:21:45;-2.10;58.60
32147;DHT22;32190;49.112;8.598;2022-12-18T03:27:40;-2.20;58.30
32147;DHT22;32190;49.112;8.598;2022-12-18T03:33:51;-2.20;58.10
32147;DHT22;32190;49.112;8.598;2022-12-18T03:39:42;-2.30;57.70
32147;DHT22;32190;49.112;8.598;2022-12-18T03:45:37;-2.40;58.00
32147;DHT22;32190;49.112;8.598;2022-12-18T03:51:38;-2.40;58.40
32147;DHT22;32190;49.112;8.598;2022-12-18T03:57:31;-2.50;58.30
32147;DHT22;32190;49.112;8.598;2022-12-18T04:03:24;-2.40;58.50
32147;DHT22;32190;49.112;8.598;2022-12-18T04:09:15;-2.40;58.20
32147;DHT22;32190;49.112;8.598;2022-12-18T04:15:07;-2.50;58.10
32147;DHT22;32190;49.112;8.598;2022-12-18T04:20:58;-2.50;58.30
32147;DHT22;32190;49.112;8.598;2022-12-18T04:26:49;-2.50;58.30
32147;DHT22;32190;49.112;8.598;2022-12-18T04:32:39;-2.40;58.60
32147;DHT22;32190;49.112;8.598;2022-12-18T04:38:30;-2.40;58.80
32147;DHT22;32190;49.112;8.598;2022-12-18T04:44:21;-2.30;58.60
32147;DHT22;32190;49.112;8.598;2022-12-18T04:50:11;-2.30;58.50
32147;DHT22;32190;49.112;8.598;2022-12-18T04:56:04;-2.30;58.60
32147;DHT22;32190;49.112;8.598;2022-12-18T05:01:57;-2.30;58.60
32147;DHT22;32190;49.112;8.598;2022-12-18T05:07:48;-2.30;58.60
32147;DHT22;32190;49.112;8.598;2022-12-18T05:13:38;-2.30;58.50
32147;DHT22;32190;49.112;8.598;2022-12-18T05:19:29;-2.20;58.30
32147;DHT22;32190;49.112;8.598;2022-12-18T05:25:20;-2.30;58.10
32147;DHT22;32190;49.112;8.598;2022-12-18T05:31:11;-2.40;57.90
32147;DHT22;32190;49.112;8.598;2022-12-18T05:37:02;-2.40;58.00
32147;DHT22;32190;49.112;8.598;2022-12-18T05:42:52;-2.60;58.00
32147;DHT22;32190;49.112;8.598;2022-12-18T05:48:44;-2.60;58.40
32147;DHT22;32190;49.112;8.598;2022-12-18T05:54:34;-2.60;58.40
32147;DHT22;32190;49.112;8.598;2022-12-18T06:00:25;-2.50;58.40
32147;DHT22;32190;49.112;8.598;2022-12-18T06:06:21;-2.60;58.20
32147;DHT22;32190;49.112;8.598;2022-12-18T06:12:12;-2.60;58.40
32147;DHT22;32190;49.112;8.598;2022-12-18T06:18:03;-2.60;58.40
32147;DHT22;32190;49.112;8.598;2022-12-18T06:23:54;-2.60;58.40
32147;DHT22;32190;49.112;8.598;2022-12-18T06:30:16;-2.60;58.40
32147;DHT22;32190;49.112;8.598;2022-12-18T06:36:13;-2.60;58.60
32147;DHT22;32190;49.112;8.598;2022-12-18T06:42:04;-2.50;59.30
32147;DHT22;32190;49.112;8.598;2022-12-18T06:47:54;-2.50;58.70
32147;DHT22;32190;49.112;8.598;2022-12-18T06:53:45;-2.40;58.80
32147;DHT22;32190;49.112;8.598;2022-12-18T06:59:36;-2.40;58.60
32147;DHT22;32190;49.112;8.598;2022-12-18T07:05:26;-2.50;58.20
32147;DHT22;32190;49.112;8.598;2022-12-18T07:11:18;-2.40;58.40
32147;DHT22;32190;49.112;8.598;2022-12-18T07:17:08;-2.50;58.40
32147;DHT22;32190;49.112;8.598;2022-12-18T07:23:02;-2.40;58.60
32147;DHT22;32190;49.112;8.598;2022-12-18T07:28:55;-2.40;58.40
32147;DHT22;32190;49.112;8.598;2022-12-18T07:34:46;-2.50;58.10
32147;DHT22;32190;49.112;8.598;2022-12-18T07:40:37;-2.50;57.90
32147;DHT22;32190;49.112;8.598;2022-12-18T07:46:27;-2.60;58.40
32147;DHT22;32190;49.112;8.598;2022-12-18T07:52:18;-2.60;57.90
32147;DHT22;32190;49.112;8.598;2022-12-18T07:58:09;-2.60;57.80
32147;DHT22;32190;49.112;8.598;2022-12-18T08:03:59;-2.70;57.60
32147;DHT22;32190;49.112;8.598;2022-12-18T08:09:50;-2.70;57.70
32147;DHT22;32190;49.112;8.598;2022-12-18T08:15:40;-2.80;57.70
32147;DHT22;32190;49.112;8.598;2022-12-18T08:21:31;-2.80;57.80
32147;DHT22;32190;49.112;8.598;2022-12-18T08:27:22;-2.80;57.80
32147;DHT22;32190;49.112;8.598;2022-12-18T08:40:28;-2.80;57.90
32147;DHT22;32190;49.112;8.598;2022-12-18T08:46:19;-2.80;58.00
32147;DHT22;32190;49.112;8.598;2022-12-18T08:52:11;-2.80;58.00
32147;DHT22;32190;49.112;8.598;2022-12-18T08:58:04;-2.80;58.10
32147;DHT22;32190;49.112;8.598;2022-12-18T09:03:54;-2.80;58.00
32147;DHT22;32190;49.112;8.598;2022-12-18T09:09:45;-2.70;58.20
32147;DHT22;32190;49.112;8.598;2022-12-18T09:15:44;-2.70;58.50
32147;DHT22;32190;49.112;8.598;2022-12-18T09:21:36;-2.70;58.50
32147;DHT22;32190;49.112;8.598;2022-12-18T09:27:28;-2.60;58.40
32147;DHT22;32190;49.112;8.598;2022-12-18T09:33:18;-2.60;58.50
32147;DHT22;32190;49.112;8.598;2022-12-18T09:39:09;-2.50;58.60
32147;DHT22;32190;49.112;8.598;2022-12-18T09:45:00;-2.60;58.60
32147;DHT22;32190;49.112;8.598;2022-12-18T09:51:25;-2.50;58.70
32147;DHT22;32190;49.112;8.598;2022-12-18T09:57:20;-2.50;58.80
32147;DHT22;32190;49.112;8.598;2022-12-18T10:03:15;-2.40;58.80
32147;DHT22;32190;49.112;8.598;2022-12-18T10:09:27;-2.40;58.70
32147;DHT22;32190;49.112;8.598;2022-12-18T10:15:21;-2.40;58.80
32147;DHT22;32190;49.112;8.598;2022-12-18T10:21:23;-2.40;59.10
32147;DHT22;32190;49.112;8.598;2022-12-18T10:27:18;-2.30;59.10
32147;DHT22;32190;49.112;8.598;2022-12-18T10:33:37;-2.20;59.20
32147;DHT22;32190;49.112;8.598;2022-12-18T10:39:31;-2.20;59.30
32147;DHT22;32190;49.112;8.598;2022-12-18T10:45:22;-2.10;59.40
32147;DHT22;32190;49.112;8.598;2022-12-18T10:51:28;-2.10;59.50
32147;DHT22;32190;49.112;8.598;2022-12-18T11:10:51;-1.80;60.00
32147;DHT22;32190;49.112;8.598;2022-12-18T11:16:46;-1.80;59.90
32147;DHT22;32190;49.112;8.598;2022-12-18T11:22:38;-1.70;60.00
32147;DHT22;32190;49.112;8.598;2022-12-18T11:28:40;-1.70;60.00
32147;DHT22;32190;49.112;8.598;2022-12-18T11:34:32;-1.60;60.10
32147;DHT22;32190;49.112;8.598;2022-12-18T11:40:30;-1.60;60.30
32147;DHT22;32190;49.112;8.598;2022-12-18T11:46:30;-1.50;60.50
32147;DHT22;32190;49.112;8.598;2022-12-18T11:52:31;-1.50;60.30
32147;DHT22;32190;49.112;8.598;2022-12-18T11:58:45;-1.40;60.30
32147;DHT22;32190;49.112;8.598;2022-12-18T12:05:13;-1.30;60.30
32147;DHT22;32190;49.112;8.598;2022-12-18T12:11:18;-1.30;60.30
32147;DHT22;32190;49.112;8.598;2022-12-18T12:17:35;-1.20;60.30
32147;DHT22;32190;49.112;8.598;2022-12-18T12:29:46;-1.10;60.30
32147;DHT22;32190;49.112;8.598;2022-12-18T12:41:42;-1.00;60.70
32147;DHT22;32190;49.112;8.598;2022-12-18T12:54:43;-0.80;60.90
32147;DHT22;32190;49.112;8.598;2022-12-18T13:00:47;-0.70;60.60
32147;DHT22;32190;49.112;8.598;2022-12-18T13:06:55;-0.60;60.40
32147;DHT22;32190;49.112;8.598;2022-12-18T13:12:58;-0.60;60.50
32147;DHT22;32190;49.112;8.598;2022-12-18T13:24:53;-0.40;60.40
32147;DHT22;32190;49.112;8.598;2022-12-18T13:30:55;-0.40;60.00
32147;DHT22;32190;49.112;8.598;2022-12-18T13:36:47;-0.30;60.30
32147;DHT22;32190;49.112;8.598;2022-12-18T13:42:38;-0.30;60.30
32147;DHT22;32190;49.112;8.598;2022-12-18T13:54:53;-0.10;61.10
32147;DHT22;32190;49.112;8.598;2022-12-18T14:00:44;-0.10;61.10
32147;DHT22;32190;49.112;8.598;2022-12-18T14:06:35;0.00;61.20
32147;DHT22;32190;49.112;8.598;2022-12-18T14:12:28;0.10;61.20
32147;DHT22;32190;49.112;8.598;2022-12-18T14:18:48;0.10;61.30
32147;DHT22;32190;49.112;8.598;2022-12-18T14:24:39;0.20;61.50
32147;DHT22;32190;49.112;8.598;2022-12-18T14:30:35;0.20;61.20
32147;DHT22;32190;49.112;8.598;2022-12-18T14:36:27;0.20;61.20
32147;DHT22;32190;49.112;8.598;2022-12-18T14:42:18;0.20;61.00
32147;DHT22;32190;49.112;8.598;2022-12-18T14:54:16;0.20;60.70
32147;DHT22;32190;49.112;8.598;2022-12-18T15:00:26;0.20;60.90
32147;DHT22;32190;49.112;8.598;2022-12-18T15:06:37;0.20;61.30
32147;DHT22;32190;49.112;8.598;2022-12-18T15:12:45;0.20;61.10
32147;DHT22;32190;49.112;8.598;2022-12-18T15:18:48;0.20;61.30
32147;DHT22;32190;49.112;8.598;2022-12-18T15:24:39;0.10;61.00
32147;DHT22;32190;49.112;8.598;2022-12-18T15:30:30;0.10;60.70
32147;DHT22;32190;49.112;8.598;2022-12-18T15:36:23;0.10;60.70
32147;DHT22;32190;49.112;8.598;2022-12-18T15:42:14;0.00;60.80
32147;DHT22;32190;49.112;8.598;2022-12-18T15:48:23;-0.10;60.80
32147;DHT22;32190;49.112;8.598;2022-12-18T15:54:14;-0.10;60.80
32147;DHT22;32190;49.112;8.598;2022-12-18T16:00:11;-0.10;60.90
32147;DHT22;32190;49.112;8.598;2022-12-18T16:06:02;-0.20;61.00
32147;DHT22;32190;49.112;8.598;2022-12-18T16:11:52;-0.20;61.20
32147;DHT22;32190;49.112;8.598;2022-12-18T16:17:43;-0.30;61.30
32147;DHT22;32190;49.112;8.598;2022-12-18T16:23:34;-0.30;61.50
32147;DHT22;32190;49.112;8.598;2022-12-18T16:29:26;-0.30;61.60
32147;DHT22;32190;49.112;8.598;2022-12-18T16:35:20;-0.20;61.90
32147;DHT22;32190;49.112;8.598;2022-12-18T16:41:18;-0.20;61.80
32147;DHT22;32190;49.112;8.598;2022-12-18T16:47:21;-0.20;61.90
32147;DHT22;32190;49.112;8.598;2022-12-18T16:53:12;-0.10;61.80
32147;DHT22;32190;49.112;8.598;2022-12-18T16:59:03;0.00;62.00
32147;DHT22;32190;49.112;8.598;2022-12-18T17:04:55;0.00;62.10
32147;DHT22;32190;49.112;8.598;2022-12-18T17:10:47;0.00;62.20
32147;DHT22;32190;49.112;8.598;2022-12-18T17:16:52;0.10;62.30
32147;DHT22;32190;49.112;8.598;2022-12-18T17:22:43;0.10;62.40
32147;DHT22;32190;49.112;8.598;2022-12-18T17:28:33;0.20;62.00
32147;DHT22;32190;49.112;8.598;2022-12-18T17:34:24;0.20;62.30
32147;DHT22;32190;49.112;8.598;2022-12-18T17:40:15;0.20;61.50
32147;DHT22;32190;49.112;8.598;2022-12-18T17:46:05;0.20;61.30
32147;DHT22;32190;49.112;8.598;2022-12-18T17:51:56;0.10;61.30
32147;DHT22;32190;49.112;8.598;2022-12-18T17:57:47;0.10;61.30
32147;DHT22;32190;49.112;8.598;2022-12-18T18:03:37;0.10;61.20
32147;DHT22;32190;49.112;8.598;2022-12-18T18:09:28;0.10;61.30
32147;DHT22;32190;49.112;8.598;2022-12-18T18:15:18;0.10;61.40
32147;DHT22;32190;49.112;8.598;2022-12-18T18:21:09;0.20;61.60
32147;DHT22;32190;49.112;8.598;2022-12-18T18:27:00;0.20;61.60
32147;DHT22;32190;49.112;8.598;2022-12-18T18:32:51;0.30;61.70
32147;DHT22;32190;49.112;8.598;2022-12-18T18:38:41;0.40;61.70
32147;DHT22;32190;49.112;8.598;2022-12-18T18:44:32;0.50;61.70
32147;DHT22;32190;49.112;8.598;2022-12-18T18:50:23;0.50;61.40
32147;DHT22;32190;49.112;8.598;2022-12-18T18:56:17;0.50;61.40
32147;DHT22;32190;49.112;8.598;2022-12-18T19:02:13;0.50;61.40
32147;DHT22;32190;49.112;8.598;2022-12-18T19:08:04;0.60;61.60
32147;DHT22;32190;49.112;8.598;2022-12-18T19:13:59;0.70;61.70
32147;DHT22;32190;49.112;8.598;2022-12-18T19:19:50;0.70;61.60
32147;DHT22;32190;49.112;8.598;2022-12-18T19:25:41;0.80;61.50
32147;DHT22;32190;49.112;8.598;2022-12-18T19:31:32;0.80;61.40
32147;DHT22;32190;49.112;8.598;2022-12-18T19:37:22;0.90;61.50
32147;DHT22;32190;49.112;8.598;2022-12-18T19:43:13;1.00;61.30
32147;DHT22;32190;49.112;8.598;2022-12-18T19:49:04;1.10;61.30
32147;DHT22;32190;49.112;8.598;2022-12-18T19:54:55;1.10;61.20
32147;DHT22;32190;49.112;8.598;2022-12-18T20:00:46;1.10;61.10
32147;DHT22;32190;49.112;8.598;2022-12-18T20:06:52;1.10;61.10
32147;DHT22;32190;49.112;8.598;2022-12-18T20:12:45;1.20;61.30
32147;DHT22;32190;49.112;8.598;2022-12-18T20:48:41;1.10;60.80
32147;DHT22;32190;49.112;8.598;2022-12-18T20:54:32;1.10;60.80
32147;DHT22;32190;49.112;8.598;2022-12-18T21:00:22;1.10;60.90
32147;DHT22;32190;49.112;8.598;2022-12-18T21:06:14;1.10;61.00
32147;DHT22;32190;49.112;8.598;2022-12-18T21:12:12;1.10;60.90
32147;DHT22;32190;49.112;8.598;2022-12-18T21:18:20;1.10;61.00
32147;DHT22;32190;49.112;8.598;2022-12-18T21:24:11;1.10;60.90
32147;DHT22;32190;49.112;8.598;2022-12-18T21:30:02;1.10;61.00
32147;DHT22;32190;49.112;8.598;2022-12-18T21:35:53;1.10;61.10
32147;DHT22;32190;49.112;8.598;2022-12-18T21:41:44;1.10;61.20
32147;DHT22;32190;49.112;8.598;2022-12-18T21:47:53;1.20;61.20
32147;DHT22;32190;49.112;8.598;2022-12-18T21:53:44;1.20;61.30
32147;DHT22;32190;49.112;8.598;2022-12-18T22:29:36;1.30;62.10
32147;DHT22;32190;49.112;8.598;2022-12-18T22:35:45;1.40;61.40
32147;DHT22;32190;49.112;8.598;2022-12-18T22:41:36;1.40;61.40
32147;DHT22;32190;49.112;8.598;2022-12-18T22:47:26;1.40;61.50
32147;DHT22;32190;49.112;8.598;2022-12-18T22:53:17;1.40;61.60
32147;DHT22;32190;49.112;8.598;2022-12-18T22:59:20;1.40;61.60
32147;DHT22;32190;49.112;8.598;2022-12-18T23:05:10;1.40;61.70
32147;DHT22;32190;49.112;8.598;2022-12-18T23:11:01;1.40;61.60
32147;DHT22;32190;49.112;8.598;2022-12-18T23:16:52;1.40;61.70
32147;DHT22;32190;49.112;8.598;2022-12-18T23:22:43;1.40;61.70
32147;DHT22;32190;49.112;8.598;2022-12-18T23:28:34;1.50;61.70
32147;DHT22;32190;49.112;8.598;2022-12-18T23:34:25;1.50;61.60
32147;DHT22;32190;49.112;8.598;2022-12-18T23:40:15;1.60;61.60
32147;DHT22;32190;49.112;8.598;2022-12-18T23:46:29;1.50;61.40
32147;DHT22;32190;49.112;8.598;2022-12-18T23:52:20;1.60;61.40
32147;DHT22;32190;49.112;8.598;2022-12-18T23:58:16;1.60;61.30
